createdAt,value
2018-12-03T00:09:06.993Z,96.10
2018-12-03T00:11:36.465Z,96.30
2018-12-03T00:14:05.661Z,96.60
2018-12-03T00:16:34.669Z,96.60
2018-12-03T00:19:03.699Z,96.50
2018-12-03T00:21:33.031Z,96.50
2018-12-03T00:26:31.297Z,96.10
2018-12-03T00:29:00.301Z,96.20
2018-12-03T00:33:58.234Z,96.10
2018-12-03T00:51:19.194Z,95.30
2018-12-03T00:53:48.180Z,95.40
2018-12-03T00:56:17.171Z,95.00
2018-12-03T00:58:46.215Z,94.90
2018-12-03T01:03:43.824Z,94.50
2018-12-03T01:08:41.522Z,94.00
2018-12-03T01:11:10.649Z,94.10
2018-12-03T01:16:09.312Z,93.60
2018-12-03T01:18:38.581Z,93.80
2018-12-03T01:21:07.580Z,92.90
2018-12-03T01:23:36.524Z,92.80
2018-12-03T01:26:06.261Z,92.60
2018-12-03T01:28:35.296Z,92.80
2018-12-03T01:38:30.770Z,92.40
2018-12-03T01:48:25.950Z,91.80
2018-12-03T01:53:23.490Z,92.20
2018-12-03T01:58:21.501Z,92.00
2018-12-03T02:08:16.961Z,92.20
2018-12-03T02:10:46.002Z,92.40
2018-12-03T02:23:09.536Z,91.90
2018-12-03T02:30:35.872Z,91.50
2018-12-03T02:35:33.721Z,91.40
2018-12-03T02:38:03.009Z,91.20
2018-12-03T02:40:32.212Z,91.20
2018-12-03T02:47:58.433Z,91.80
2018-12-03T02:50:27.556Z,92.30
2018-12-03T02:52:56.604Z,92.60
2018-12-03T02:55:25.553Z,92.90
2018-12-03T03:00:23.169Z,94.40
2018-12-03T03:05:20.764Z,94.60
2018-12-03T03:12:47.039Z,94.90
2018-12-03T03:17:44.997Z,94.80
2018-12-03T03:20:14.645Z,94.50
2018-12-03T03:25:12.433Z,94.80
2018-12-03T03:30:13.024Z,94.70
2018-12-03T03:35:12.229Z,94.60
2018-12-03T03:37:41.554Z,94.40
2018-12-03T03:42:40.256Z,94.50
2018-12-03T03:45:13.852Z,94.40
2018-12-03T03:47:43.131Z,94.40
2018-12-03T03:52:40.676Z,94.30
2018-12-03T03:55:10.592Z,94.30
2018-12-03T03:57:39.576Z,94.30
2018-12-03T04:05:10.427Z,93.40
2018-12-03T04:07:40.227Z,93.50
2018-12-03T04:10:10.456Z,93.40
2018-12-03T04:12:39.849Z,93.30
2018-12-03T04:15:10.124Z,93.20
2018-12-03T04:17:39.110Z,93.10
2018-12-03T04:20:11.402Z,93.10
2018-12-03T04:25:10.260Z,92.90
2018-12-03T04:27:39.205Z,93.00
2018-12-03T04:30:13.576Z,92.80
2018-12-03T04:32:42.953Z,92.70
2018-12-03T04:35:12.497Z,92.60
2018-12-03T04:37:41.886Z,92.40
2018-12-03T04:47:38.848Z,92.20
2018-12-03T04:52:37.738Z,92.30
2018-12-03T04:57:35.488Z,92.30
2018-12-03T05:00:07.888Z,92.20
2018-12-03T05:02:36.829Z,92.20
2018-12-03T05:10:07.649Z,92.30
2018-12-03T05:15:07.281Z,92.30
2018-12-03T05:17:36.236Z,92.10
2018-12-03T05:22:35.119Z,92.10
2018-12-03T05:30:01.931Z,92.00
2018-12-03T05:35:00.015Z,91.80
2018-12-03T05:37:28.949Z,91.90
2018-12-03T05:39:57.918Z,91.90
2018-12-03T05:42:26.894Z,91.90
2018-12-03T05:44:55.857Z,92.00
2018-12-03T05:47:24.869Z,92.00
2018-12-03T05:49:53.892Z,92.00
2018-12-03T05:54:52.071Z,91.80
2018-12-03T05:57:21.027Z,91.90
2018-12-03T06:02:18.550Z,92.00
2018-12-03T06:04:47.517Z,92.00
2018-12-03T06:09:46.037Z,92.00
2018-12-03T06:12:15.290Z,92.00
2018-12-03T06:14:44.319Z,92.00
2018-12-03T06:19:41.856Z,91.90
2018-12-03T06:22:10.819Z,91.90
2018-12-03T06:27:08.402Z,91.90
2018-12-03T06:32:06.588Z,92.00
2018-12-03T06:37:04.465Z,92.00
2018-12-03T06:39:33.490Z,92.10
2018-12-03T06:42:02.745Z,92.00
2018-12-03T06:44:31.703Z,92.00
2018-12-03T06:47:00.775Z,92.00
2018-12-03T06:49:29.729Z,92.00
2018-12-03T06:51:59.083Z,92.00
2018-12-03T06:54:28.071Z,91.70
2018-12-03T06:56:57.067Z,91.80
2018-12-03T06:59:26.004Z,91.70
2018-12-03T07:01:55.016Z,91.40
2018-12-03T07:04:24.041Z,91.40
2018-12-03T07:06:53.004Z,91.40
2018-12-03T07:09:22.440Z,91.00
2018-12-03T07:11:51.405Z,91.00
2018-12-03T07:14:20.428Z,91.10
2018-12-03T07:16:49.412Z,91.60
2018-12-03T07:21:47.110Z,91.70
2018-12-03T07:24:16.162Z,91.60
2018-12-03T07:31:42.329Z,91.80
2018-12-03T07:34:11.596Z,91.70
2018-12-03T07:36:40.605Z,91.50
2018-12-03T07:41:38.146Z,91.00
2018-12-03T07:44:07.108Z,90.90
2018-12-03T07:49:05.706Z,90.70
2018-12-03T07:54:03.312Z,90.50
2018-12-03T07:56:32.328Z,90.50
2018-12-03T07:59:01.573Z,90.30
2018-12-03T08:06:27.736Z,89.80
2018-12-03T08:08:57.229Z,89.70
2018-12-03T08:16:23.350Z,89.30
2018-12-03T08:18:52.325Z,89.50
2018-12-03T08:21:21.249Z,89.60
2018-12-03T08:23:57.740Z,89.80
2018-12-03T08:28:55.280Z,89.40
2018-12-03T08:31:24.238Z,89.00
2018-12-03T08:33:53.597Z,88.80
2018-12-03T08:36:22.874Z,88.80
2018-12-03T08:41:20.777Z,88.70
2018-12-03T08:46:18.316Z,87.50
2018-12-03T08:48:47.301Z,86.00
2018-12-03T08:51:16.288Z,85.70
2018-12-03T08:53:47.417Z,86.20
2018-12-03T08:56:16.426Z,79.80
2018-12-03T08:58:45.432Z,78.80
2018-12-03T09:01:17.363Z,80.20
2018-12-03T09:03:51.585Z,81.80
2018-12-03T09:08:55.865Z,81.60
2018-12-03T09:11:25.349Z,80.80
2018-12-03T09:13:54.573Z,78.70
2018-12-03T09:16:24.402Z,78.40
2018-12-03T09:18:53.744Z,80.10
2018-12-03T09:21:22.719Z,83.20
2018-12-03T09:23:53.069Z,83.50
2018-12-03T09:26:22.075Z,83.20
2018-12-03T09:31:21.448Z,80.90
2018-12-03T09:33:52.241Z,83.00
2018-12-03T09:38:57.898Z,83.70
2018-12-03T09:41:26.869Z,82.20
2018-12-03T09:46:24.821Z,78.50
2018-12-03T09:48:58.361Z,78.00
2018-12-03T09:53:59.991Z,78.70
2018-12-03T09:56:34.167Z,78.30
2018-12-03T10:01:35.563Z,77.90
2018-12-03T10:04:07.336Z,78.20
2018-12-03T10:06:36.385Z,76.50
2018-12-03T10:09:09.484Z,77.00
2018-12-03T10:11:38.549Z,77.80
2018-12-03T10:14:07.708Z,78.90
2018-12-03T10:16:40.686Z,77.30
2018-12-03T10:19:09.750Z,75.90
2018-12-03T10:21:39.221Z,77.00
2018-12-03T10:24:12.870Z,75.30
2018-12-03T10:26:41.909Z,75.80
2018-12-03T10:29:14.066Z,74.10
2018-12-03T10:31:43.060Z,75.00
2018-12-03T10:34:15.415Z,75.50
2018-12-03T10:36:52.550Z,74.40
2018-12-03T10:39:28.263Z,73.30
2018-12-03T10:42:08.689Z,74.10
2018-12-03T10:44:37.718Z,74.30
2018-12-03T10:47:07.556Z,75.40
2018-12-03T10:49:36.553Z,76.10
2018-12-03T10:52:06.160Z,77.10
2018-12-03T10:54:36.736Z,76.70
2018-12-03T10:57:07.386Z,77.60
2018-12-03T10:59:36.411Z,78.30
2018-12-03T11:02:11.189Z,78.70
2018-12-03T11:04:43.212Z,79.50
2018-12-03T11:09:41.622Z,80.30
2018-12-03T11:12:10.612Z,80.90
2018-12-03T11:14:39.652Z,80.20
2018-12-03T11:19:37.417Z,79.50
2018-12-03T11:22:06.840Z,79.00
2018-12-03T11:24:36.198Z,79.50
2018-12-03T11:27:05.300Z,79.20
2018-12-03T11:29:39.797Z,78.80
2018-12-03T11:32:08.858Z,78.60
2018-12-03T11:34:38.221Z,78.30
2018-12-03T11:37:13.985Z,77.50
2018-12-03T11:39:52.320Z,75.80
2018-12-03T11:42:21.748Z,74.80
2018-12-03T11:44:51.076Z,75.10
2018-12-03T11:47:20.229Z,75.50
2018-12-03T11:49:49.242Z,75.60
2018-12-03T11:52:18.260Z,75.80
2018-12-03T11:54:47.219Z,75.80
2018-12-03T11:57:16.192Z,76.10
2018-12-03T11:59:45.213Z,74.80
2018-12-03T12:02:14.278Z,74.70
2018-12-03T12:04:43.244Z,74.60
2018-12-03T12:07:12.295Z,75.00
2018-12-03T12:09:41.299Z,75.60
2018-12-03T12:12:10.335Z,75.40
2018-12-03T12:14:39.622Z,75.50
2018-12-03T12:19:37.337Z,75.20
2018-12-03T12:22:06.865Z,75.00
2018-12-03T12:24:36.400Z,75.60
2018-12-03T12:27:05.386Z,74.70
2018-12-03T12:29:34.336Z,73.30
2018-12-03T12:32:03.371Z,72.90
2018-12-03T12:34:32.343Z,73.40
2018-12-03T12:37:01.358Z,74.30
2018-12-03T12:39:30.333Z,73.80
2018-12-03T12:41:59.344Z,74.50
2018-12-03T12:44:28.321Z,74.90
2018-12-03T12:46:57.360Z,75.40
2018-12-03T12:49:26.402Z,74.90
2018-12-03T12:51:55.420Z,74.80
2018-12-03T12:54:24.747Z,75.30
2018-12-03T12:56:53.758Z,75.80
2018-12-03T13:01:51.647Z,76.10
2018-12-03T13:04:20.667Z,76.60
2018-12-03T13:06:49.672Z,76.60
2018-12-03T13:09:18.657Z,77.10
2018-12-03T13:14:16.280Z,76.70
2018-12-03T13:16:45.373Z,76.70
2018-12-03T13:19:14.361Z,77.30
2018-12-03T13:21:43.378Z,77.10
2018-12-03T13:24:12.377Z,77.40
2018-12-03T13:26:42.934Z,78.00
2018-12-03T13:29:11.986Z,77.20
2018-12-03T13:34:09.664Z,76.80
2018-12-03T13:39:09.664Z,77.50
2018-12-03T13:41:38.674Z,77.30
2018-12-03T13:44:08.731Z,77.30
2018-12-03T13:51:36.049Z,77.20
2018-12-03T13:54:04.559Z,77.30
2018-12-03T13:56:34.312Z,77.20
2018-12-03T14:01:31.874Z,76.80
2018-12-03T14:04:06.207Z,77.30
2018-12-03T14:06:42.970Z,77.20
2018-12-03T14:09:26.881Z,77.00
2018-12-03T14:12:16.487Z,77.30
2018-12-03T14:16:04.387Z,77.10
2018-12-03T14:18:37.419Z,77.30
2018-12-03T14:21:12.435Z,77.60
2018-12-03T14:26:11.169Z,77.60
2018-12-03T14:28:40.264Z,78.20
2018-12-03T14:31:09.372Z,77.70
2018-12-03T14:33:38.392Z,77.60
2018-12-03T14:36:07.664Z,77.90
2018-12-03T14:38:36.700Z,77.90
2018-12-03T14:41:05.985Z,78.40
2018-12-03T14:43:34.990Z,78.30
2018-12-03T14:48:32.680Z,78.20
2018-12-03T14:51:04.861Z,78.50
2018-12-03T14:53:33.877Z,78.60
2018-12-03T14:56:02.941Z,79.90
2018-12-03T14:58:32.918Z,78.80
2018-12-03T15:01:07.882Z,78.70
2018-12-03T15:03:37.352Z,78.60
2018-12-03T15:06:06.367Z,78.70
2018-12-03T15:08:35.373Z,78.80
2018-12-03T15:11:04.428Z,78.70
2018-12-03T15:13:33.516Z,78.40
2018-12-03T15:16:03.521Z,78.50
2018-12-03T15:19:19.005Z,78.90
2018-12-03T15:21:47.973Z,79.00
2018-12-03T15:24:17.848Z,78.90
2018-12-03T15:26:47.032Z,78.80
2018-12-03T15:29:16.252Z,78.50
2018-12-03T15:31:46.794Z,78.70
2018-12-03T15:34:16.748Z,78.50
2018-12-03T15:39:15.553Z,78.50
2018-12-03T15:41:44.548Z,78.50
2018-12-03T15:44:13.687Z,78.60
2018-12-03T15:46:43.928Z,79.00
2018-12-03T15:49:13.781Z,79.10
2018-12-03T15:51:42.781Z,79.20
2018-12-03T15:56:43.569Z,79.50
2018-12-03T15:59:13.508Z,79.70
2018-12-03T16:01:42.544Z,80.00
2018-12-03T16:04:12.105Z,80.00
2018-12-03T16:09:11.853Z,80.50
2018-12-03T16:11:41.191Z,80.80
2018-12-03T16:14:10.409Z,80.80
2018-12-03T16:19:08.052Z,81.10
2018-12-03T16:21:37.009Z,81.00
2018-12-03T16:26:35.696Z,81.20
2018-12-03T16:29:04.704Z,81.30
2018-12-03T16:31:33.674Z,81.50
2018-12-03T16:34:02.717Z,81.50
2018-12-03T16:36:31.799Z,81.40
2018-12-03T16:39:00.796Z,81.30
2018-12-03T16:41:30.330Z,81.10
2018-12-03T16:44:00.004Z,81.00
2018-12-03T16:46:29.024Z,80.80
2018-12-03T16:48:58.029Z,80.80
2018-12-03T16:51:27.072Z,81.00
2018-12-03T16:53:56.054Z,80.90
2018-12-03T16:58:53.614Z,80.60
2018-12-03T17:06:19.974Z,80.20
2018-12-03T17:08:49.037Z,80.00
2018-12-03T17:13:46.681Z,80.00
2018-12-03T17:16:15.788Z,80.00
2018-12-03T17:18:45.018Z,79.70
2018-12-03T17:21:24.195Z,79.60
2018-12-03T17:24:03.174Z,79.80
2018-12-03T17:26:32.208Z,79.80
2018-12-03T17:29:01.396Z,80.00
2018-12-03T17:31:30.511Z,79.90
2018-12-03T17:33:59.649Z,79.90
2018-12-03T17:36:28.934Z,79.70
2018-12-03T17:38:58.065Z,79.60
2018-12-03T17:43:55.859Z,79.50
2018-12-03T17:48:53.469Z,79.80
2018-12-03T17:56:20.271Z,81.40
2018-12-03T18:03:47.578Z,82.00
2018-12-03T18:06:17.124Z,82.60
2018-12-03T18:08:46.488Z,82.60
2018-12-03T18:18:41.580Z,82.40
2018-12-03T18:21:10.624Z,82.00
2018-12-03T18:23:39.723Z,81.00
2018-12-03T18:26:08.765Z,80.30
2018-12-03T18:28:38.020Z,79.90
2018-12-03T18:33:35.732Z,78.30
2018-12-03T18:36:04.779Z,77.90
2018-12-03T18:38:33.893Z,77.60
2018-12-03T18:41:03.473Z,77.00
2018-12-03T18:43:32.824Z,76.00
2018-12-03T18:46:01.918Z,75.60
2018-12-03T18:51:00.268Z,74.70
2018-12-03T18:53:30.381Z,74.80
2018-12-03T18:58:33.890Z,73.80
2018-12-03T19:01:03.660Z,74.00
2018-12-03T19:03:32.697Z,73.30
2018-12-03T19:08:31.557Z,72.80
2018-12-03T19:11:00.575Z,73.40
2018-12-03T19:13:29.606Z,73.10
2018-12-03T19:15:58.627Z,73.10
2018-12-03T19:25:53.594Z,72.70
2018-12-03T19:28:22.682Z,72.80
2018-12-03T19:30:51.729Z,72.40
2018-12-03T19:33:21.060Z,72.50
2018-12-03T19:40:47.380Z,71.80
2018-12-03T19:43:16.419Z,71.40
2018-12-03T19:45:46.229Z,70.80
2018-12-03T19:53:13.177Z,70.50
2018-12-03T20:00:56.669Z,69.50
2018-12-03T20:03:25.638Z,69.40
2018-12-03T20:10:52.241Z,70.60
2018-12-03T20:13:21.359Z,72.40
2018-12-03T20:15:50.413Z,71.80
2018-12-03T20:18:19.400Z,72.60
2018-12-03T20:21:26.336Z,73.00
2018-12-03T20:26:37.004Z,80.00
2018-12-03T20:31:51.573Z,86.50
2018-12-03T20:34:34.087Z,88.40
2018-12-03T20:42:13.733Z,91.20
2018-12-03T20:44:48.868Z,92.50
2018-12-03T20:47:21.551Z,93.00
2018-12-03T20:50:31.106Z,93.40
2018-12-03T20:55:35.064Z,93.70
2018-12-03T20:58:04.208Z,93.90
2018-12-03T21:00:33.260Z,93.90
2018-12-03T21:03:03.277Z,93.90
2018-12-03T21:05:32.326Z,94.10
2018-12-03T21:08:01.360Z,93.80
2018-12-03T21:12:59.696Z,93.90
2018-12-03T21:18:03.204Z,93.30
2018-12-03T21:20:45.053Z,93.20
2018-12-03T21:23:14.092Z,93.00
2018-12-03T21:28:12.160Z,92.60
2018-12-03T21:33:09.882Z,92.00
2018-12-03T21:35:39.476Z,91.90
2018-12-03T21:38:08.487Z,92.10
2018-12-03T21:40:37.624Z,91.80
2018-12-03T21:43:06.730Z,91.00
2018-12-03T21:45:35.845Z,91.00
2018-12-03T21:48:04.889Z,90.90
2018-12-03T21:50:33.905Z,91.00
2018-12-03T21:53:05.406Z,91.30
2018-12-03T21:55:34.384Z,90.90
2018-12-03T21:58:04.342Z,91.30
2018-12-03T22:00:33.307Z,91.50
2018-12-03T22:03:02.339Z,91.80
2018-12-03T22:08:00.829Z,92.20
2018-12-03T22:10:30.284Z,92.30
2018-12-03T22:12:59.373Z,92.80
2018-12-03T22:15:28.370Z,93.90
2018-12-03T22:20:26.048Z,94.30
2018-12-03T22:22:55.348Z,93.30
2018-12-03T22:25:24.348Z,93.70
2018-12-03T22:30:23.195Z,93.60
2018-12-03T22:32:52.405Z,92.70
2018-12-03T22:35:21.406Z,92.70
2018-12-03T22:37:50.484Z,91.60
2018-12-03T22:40:19.459Z,91.50
2018-12-03T22:42:48.469Z,91.50
2018-12-03T22:47:46.152Z,90.50
2018-12-03T22:50:15.248Z,90.70
2018-12-03T22:52:44.299Z,90.10
2018-12-03T22:55:13.317Z,89.90
2018-12-03T22:57:42.345Z,89.40
2018-12-03T23:00:20.277Z,88.80
2018-12-03T23:02:49.293Z,87.80
2018-12-03T23:05:18.333Z,87.20
2018-12-03T23:07:47.350Z,86.60
2018-12-03T23:12:46.132Z,85.10
2018-12-03T23:15:15.844Z,84.60
2018-12-03T23:17:45.047Z,84.10
2018-12-03T23:20:14.113Z,83.90
2018-12-03T23:22:43.130Z,84.30
2018-12-03T23:25:12.102Z,84.40
2018-12-03T23:27:41.114Z,83.90
2018-12-03T23:30:10.293Z,83.40
2018-12-03T23:32:42.508Z,83.60
2018-12-03T23:35:11.880Z,84.40
2018-12-03T23:37:40.877Z,83.80
2018-12-03T23:40:09.970Z,84.20
2018-12-03T23:42:38.959Z,84.10
2018-12-03T23:45:08.142Z,84.20
2018-12-03T23:47:37.848Z,84.40
2018-12-03T23:50:07.122Z,84.20
2018-12-03T23:52:36.128Z,84.10
2018-12-03T23:55:05.314Z,84.10
2018-12-03T23:57:34.303Z,83.30
